createdAt,value
2022-08-25T00:00:18.841Z,1.88
2022-08-25T00:02:55.613Z,2.10
2022-08-25T00:05:29.323Z,2.00
2022-08-25T00:07:58.841Z,2.15
2022-08-25T00:10:27.284Z,2.35
2022-08-25T00:12:55.195Z,1.73
2022-08-25T00:15:23.610Z,1.90
2022-08-25T00:17:51.585Z,1.92
2022-08-25T00:20:19.929Z,2.25
2022-08-25T00:22:48.966Z,1.90
2022-08-25T00:25:18.872Z,1.77
2022-08-25T00:27:47.360Z,2.20
2022-08-25T00:30:16.798Z,2.47
2022-08-25T00:32:50.521Z,2.13
2022-08-25T00:35:23.488Z,2.40
2022-08-25T00:37:51.325Z,1.95
2022-08-25T00:40:20.543Z,2.60
2022-08-25T00:42:48.292Z,2.15
2022-08-25T00:45:16.096Z,2.10
2022-08-25T00:47:43.815Z,2.17
2022-08-25T00:50:12.863Z,2.42
2022-08-25T00:52:45.105Z,1.90
2022-08-25T00:55:16.911Z,2.30
2022-08-25T00:57:49.017Z,2.10
2022-08-25T01:00:20.782Z,2.15
2022-08-25T01:02:48.989Z,2.20
2022-08-25T01:05:17.954Z,2.03
2022-08-25T01:07:46.128Z,2.78
2022-08-25T01:10:14.626Z,1.80
2022-08-25T01:12:42.497Z,1.83
2022-08-25T01:15:14.219Z,2.10
2022-08-25T01:17:48.848Z,2.28
2022-08-25T01:20:19.598Z,2.17
2022-08-25T01:22:54.997Z,2.40
2022-08-25T01:25:33.279Z,1.95
2022-08-25T01:28:01.327Z,2.33
2022-08-25T01:30:29.071Z,2.30
2022-08-25T01:32:56.767Z,2.20
2022-08-25T01:35:24.921Z,2.10
2022-08-25T01:37:53.939Z,2.22
2022-08-25T01:40:23.056Z,1.90
2022-08-25T01:42:59.572Z,2.00
2022-08-25T01:45:28.907Z,2.33
2022-08-25T01:47:56.810Z,2.47
2022-08-25T01:50:24.586Z,2.83
2022-08-25T01:52:59.613Z,2.40
2022-08-25T01:55:27.879Z,2.58
2022-08-25T01:57:55.866Z,2.30
2022-08-25T02:00:24.402Z,1.85
2022-08-25T02:02:55.451Z,2.50
2022-08-25T02:05:23.934Z,2.45
2022-08-25T02:07:51.815Z,2.40
2022-08-25T02:10:22.390Z,2.55
2022-08-25T02:12:51.061Z,2.20
2022-08-25T02:15:22.333Z,2.53
2022-08-25T02:17:50.061Z,2.80
2022-08-25T02:20:18.996Z,2.35
2022-08-25T02:22:52.995Z,2.55
2022-08-25T02:25:25.902Z,2.17
2022-08-25T02:27:53.586Z,2.58
2022-08-25T02:30:22.170Z,2.10
2022-08-25T02:32:49.902Z,2.60
2022-08-25T02:35:18.051Z,2.35
2022-08-25T02:37:45.718Z,2.70
2022-08-25T02:40:13.972Z,3.00
2022-08-25T02:42:43.459Z,2.40
2022-08-25T02:45:11.543Z,3.28
2022-08-25T02:47:39.374Z,2.70
2022-08-25T02:50:08.513Z,2.70
2022-08-25T02:52:36.318Z,2.85
2022-08-25T02:55:07.028Z,2.80
2022-08-25T02:57:34.779Z,2.33
2022-08-25T03:00:05.920Z,2.60
2022-08-25T03:02:33.723Z,2.67
2022-08-25T03:05:01.509Z,2.55
2022-08-25T03:07:29.365Z,2.90
2022-08-25T03:10:07.689Z,2.97
2022-08-25T03:12:35.342Z,2.70
2022-08-25T03:15:12.908Z,2.95
2022-08-25T03:17:41.020Z,3.05
2022-08-25T03:20:13.948Z,2.60
2022-08-25T03:22:42.581Z,3.22
2022-08-25T03:25:28.013Z,2.80
2022-08-25T03:27:55.874Z,2.75
2022-08-25T03:30:25.822Z,2.88
2022-08-25T03:32:54.066Z,2.85
2022-08-25T03:35:21.938Z,2.58
2022-08-25T03:37:51.139Z,2.67
2022-08-25T03:40:18.917Z,2.75
2022-08-25T03:42:46.952Z,3.10
2022-08-25T03:45:17.757Z,2.63
2022-08-25T03:47:49.111Z,2.88
2022-08-25T03:50:19.080Z,2.83
2022-08-25T03:52:53.717Z,2.67
2022-08-25T03:55:23.329Z,2.80
2022-08-25T03:57:51.626Z,2.50
2022-08-25T04:00:19.843Z,2.90
2022-08-25T04:02:48.971Z,2.65
2022-08-25T04:05:16.734Z,3.03
2022-08-25T04:07:44.402Z,3.08
2022-08-25T04:10:12.876Z,2.78
2022-08-25T04:12:41.758Z,3.33
2022-08-25T04:15:10.638Z,3.13
2022-08-25T04:17:40.732Z,3.17
2022-08-25T04:20:14.161Z,2.72
2022-08-25T04:22:44.959Z,3.40
2022-08-25T04:25:13.432Z,3.13
2022-08-25T04:27:41.163Z,2.90
2022-08-25T04:30:09.943Z,3.40
2022-08-25T04:32:37.867Z,3.00
2022-08-25T04:35:06.355Z,2.95
2022-08-25T04:37:35.746Z,3.00
2022-08-25T04:40:04.532Z,3.47
2022-08-25T04:42:32.265Z,3.40
2022-08-25T04:45:01.813Z,3.22
2022-08-25T04:47:29.837Z,3.03
2022-08-25T04:49:57.564Z,2.65
2022-08-25T04:52:25.259Z,3.08
2022-08-25T04:54:54.438Z,3.30
2022-08-25T04:57:22.181Z,3.20
2022-08-25T04:59:50.086Z,3.20
2022-08-25T05:02:17.740Z,2.78
2022-08-25T05:04:45.453Z,2.65
2022-08-25T05:07:13.154Z,2.95
2022-08-25T05:09:41.087Z,3.17
2022-08-25T05:12:10.622Z,2.97
2022-08-25T05:14:40.452Z,3.33
2022-08-25T05:17:08.818Z,3.35
2022-08-25T05:19:37.159Z,3.33
2022-08-25T05:22:04.884Z,3.15
2022-08-25T05:24:32.597Z,3.30
2022-08-25T05:27:00.263Z,2.88
2022-08-25T05:29:29.277Z,2.90
2022-08-25T05:31:57.179Z,3.15
2022-08-25T05:34:25.708Z,3.28
2022-08-25T05:36:53.466Z,3.42
2022-08-25T05:39:21.145Z,3.38
2022-08-25T05:41:48.850Z,3.28
2022-08-25T05:44:20.956Z,3.25
2022-08-25T05:46:51.159Z,3.47
2022-08-25T05:49:18.987Z,3.88
2022-08-25T05:51:46.659Z,3.67
2022-08-25T05:54:14.374Z,3.17
2022-08-25T05:56:42.073Z,3.17
2022-08-25T05:59:10.457Z,3.10
2022-08-25T06:01:55.872Z,3.55
2022-08-25T06:04:24.912Z,2.85
2022-08-25T06:06:53.891Z,3.22
2022-08-25T06:09:22.293Z,3.10
2022-08-25T06:11:54.453Z,3.13
2022-08-25T06:14:23.177Z,3.60
2022-08-25T06:16:51.593Z,2.80
2022-08-25T06:19:19.695Z,3.05
2022-08-25T06:21:49.148Z,2.78
2022-08-25T06:24:17.098Z,2.67
2022-08-25T06:26:45.110Z,3.33
2022-08-25T06:29:13.990Z,3.25
2022-08-25T06:31:42.509Z,3.03
2022-08-25T06:34:10.961Z,3.17
2022-08-25T06:36:38.642Z,3.33
2022-08-25T06:39:10.529Z,2.80
2022-08-25T06:41:39.665Z,2.78
2022-08-25T06:44:07.368Z,3.00
2022-08-25T06:46:36.935Z,3.25
2022-08-25T06:49:06.075Z,2.30
2022-08-25T06:51:36.035Z,2.60
2022-08-25T06:54:04.961Z,3.33
2022-08-25T06:56:34.605Z,2.60
2022-08-25T06:59:02.807Z,3.40
2022-08-25T07:01:32.153Z,2.80
2022-08-25T07:04:02.615Z,2.90
2022-08-25T07:06:32.366Z,2.90
2022-08-25T07:09:00.935Z,3.30
2022-08-25T07:11:29.217Z,3.30
2022-08-25T07:13:58.244Z,2.55
2022-08-25T07:16:29.009Z,3.22
2022-08-25T07:18:59.086Z,2.75
2022-08-25T07:21:33.188Z,2.60
2022-08-25T07:24:03.380Z,2.80
2022-08-25T07:26:37.681Z,2.67
2022-08-25T07:29:10.970Z,3.17
2022-08-25T07:31:39.001Z,2.70
2022-08-25T07:34:25.580Z,2.75
2022-08-25T07:36:54.509Z,2.88
2022-08-25T07:39:23.433Z,2.40
2022-08-25T07:41:52.368Z,2.55
2022-08-25T07:44:23.217Z,3.28
2022-08-25T07:46:52.507Z,3.03
2022-08-25T07:49:23.151Z,2.55
2022-08-25T07:52:04.463Z,3.03
2022-08-25T07:54:34.315Z,3.10
2022-08-25T07:57:03.109Z,2.78
2022-08-25T07:59:39.703Z,2.95
2022-08-25T08:02:16.137Z,2.85
2022-08-25T08:04:48.415Z,2.72
2022-08-25T08:07:18.140Z,3.53
2022-08-25T08:09:45.879Z,2.90
2022-08-25T08:12:13.543Z,2.63
2022-08-25T08:14:45.113Z,3.05
2022-08-25T08:17:14.067Z,2.58
2022-08-25T08:19:45.120Z,2.80
2022-08-25T08:22:15.997Z,3.00
2022-08-25T08:24:54.806Z,2.83
2022-08-25T08:27:24.370Z,2.65
2022-08-25T08:29:53.735Z,2.83
2022-08-25T08:32:25.176Z,2.75
2022-08-25T08:34:59.288Z,3.33
2022-08-25T08:37:28.077Z,2.78
2022-08-25T08:39:56.041Z,2.85
2022-08-25T08:42:43.012Z,2.42
2022-08-25T08:45:28.265Z,2.40
2022-08-25T08:48:22.459Z,2.72
2022-08-25T08:51:02.620Z,3.28
2022-08-25T08:53:46.233Z,2.63
2022-08-25T08:58:49.997Z,2.83
2022-08-25T09:01:27.617Z,3.08
2022-08-25T09:04:01.194Z,2.55
2022-08-25T09:06:38.702Z,3.00
2022-08-25T09:09:07.854Z,2.50
2022-08-25T09:11:50.707Z,2.58
2022-08-25T09:14:33.909Z,2.55
2022-08-25T09:17:07.970Z,2.92
2022-08-25T09:20:03.962Z,2.50
2022-08-25T09:22:47.519Z,2.50
2022-08-25T09:25:39.838Z,2.40
2022-08-25T09:28:21.093Z,2.53
2022-08-25T09:30:55.686Z,2.40
2022-08-25T09:33:26.774Z,2.60
2022-08-25T09:35:57.556Z,2.47
2022-08-25T09:38:26.194Z,2.20
2022-08-25T09:40:56.975Z,2.58
2022-08-25T09:43:33.124Z,2.33
2022-08-25T09:46:02.880Z,2.60
2022-08-25T09:48:39.775Z,2.55
2022-08-25T09:51:18.825Z,2.40
2022-08-25T09:53:53.166Z,2.47
2022-08-25T09:56:22.795Z,2.28
2022-08-25T09:58:51.303Z,2.35
2022-08-25T10:01:22.336Z,3.05
2022-08-25T10:04:00.783Z,2.10
2022-08-25T10:06:34.399Z,2.85
2022-08-25T10:09:06.456Z,2.50
2022-08-25T10:11:39.315Z,2.33
2022-08-25T10:14:18.793Z,2.50
2022-08-25T10:16:48.789Z,2.00
2022-08-25T10:19:26.825Z,2.75
2022-08-25T10:22:08.237Z,2.10
2022-08-25T10:24:41.011Z,2.15
2022-08-25T10:27:23.286Z,3.13
2022-08-25T10:30:08.044Z,2.28
2022-08-25T10:32:58.019Z,2.35
2022-08-25T10:35:32.266Z,2.03
2022-08-25T10:38:11.345Z,2.38
2022-08-25T10:40:45.701Z,2.20
2022-08-25T10:43:25.354Z,2.42
2022-08-25T10:46:05.106Z,2.53
2022-08-25T10:48:53.654Z,2.17
2022-08-25T10:51:52.742Z,2.40
2022-08-25T10:54:40.470Z,2.80
2022-08-25T10:57:19.323Z,2.00
2022-08-25T10:59:57.389Z,2.00
2022-08-25T11:02:48.955Z,2.10
2022-08-25T11:05:27.063Z,2.50
2022-08-25T11:08:05.522Z,2.13
2022-08-25T11:10:42.713Z,2.10
2022-08-25T11:13:18.021Z,2.42
2022-08-25T11:16:13.700Z,2.20
2022-08-25T11:18:51.447Z,2.20
2022-08-25T11:21:24.530Z,2.55
2022-08-25T11:23:59.505Z,2.30
2022-08-25T11:26:36.825Z,2.47
2022-08-25T11:29:11.523Z,2.00
2022-08-25T11:31:43.251Z,2.20
2022-08-25T11:34:14.459Z,1.77
2022-08-25T11:36:50.601Z,2.13
2022-08-25T11:39:34.507Z,2.20
2022-08-25T11:42:28.830Z,2.33
2022-08-25T11:45:08.116Z,2.10
2022-08-25T11:48:00.213Z,2.60
2022-08-25T11:50:32.724Z,2.22
2022-08-25T11:53:23.646Z,2.35
2022-08-25T11:56:02.353Z,2.05
2022-08-25T11:58:35.544Z,2.30
2022-08-25T12:01:06.021Z,2.22
2022-08-25T12:04:14.832Z,2.10
2022-08-25T12:07:19.583Z,2.05
2022-08-25T12:10:20.773Z,2.00
2022-08-25T12:13:22.299Z,2.08
2022-08-25T12:16:02.410Z,2.28
2022-08-25T12:18:45.639Z,2.10
2022-08-25T12:21:29.029Z,2.05
2022-08-25T12:24:17.842Z,2.28
2022-08-25T12:26:53.759Z,2.08
2022-08-25T12:29:31.915Z,2.30
2022-08-25T12:32:41.931Z,2.17
2022-08-25T12:35:29.835Z,2.30
2022-08-25T12:38:05.727Z,2.05
2022-08-25T12:40:40.137Z,1.90
2022-08-25T12:43:12.412Z,2.20
2022-08-25T12:45:47.186Z,2.28
2022-08-25T12:48:56.997Z,2.47
2022-08-25T12:51:27.346Z,2.03
2022-08-25T12:54:02.063Z,1.80
2022-08-25T12:56:39.143Z,2.03
2022-08-25T12:59:15.670Z,2.30
2022-08-25T13:02:07.813Z,1.95
2022-08-25T13:05:04.170Z,2.17
2022-08-25T13:07:47.572Z,2.33
2022-08-25T13:10:44.748Z,2.22
2022-08-25T13:13:23.690Z,2.00
2022-08-25T13:16:00.455Z,2.22
2022-08-25T13:18:32.497Z,1.85
2022-08-25T13:21:07.206Z,2.33
2022-08-25T13:23:37.554Z,2.05
2022-08-25T13:26:06.310Z,2.20
2022-08-25T13:28:36.745Z,1.65
2022-08-25T13:31:10.678Z,2.10
2022-08-25T13:33:39.711Z,2.33
2022-08-25T13:36:25.307Z,2.50
2022-08-25T13:38:53.122Z,2.55
2022-08-25T13:41:28.911Z,2.15
2022-08-25T13:44:01.791Z,1.90
2022-08-25T13:46:31.546Z,2.05
2022-08-25T13:49:07.191Z,1.92
2022-08-25T13:51:37.602Z,2.10
2022-08-25T13:54:08.426Z,2.30
2022-08-25T13:56:41.204Z,2.08
2022-08-25T13:59:23.057Z,2.55
2022-08-25T14:01:53.312Z,2.03
2022-08-25T14:04:26.897Z,2.13
2022-08-25T14:07:19.464Z,2.00
2022-08-25T14:09:51.630Z,2.28
2022-08-25T14:12:31.783Z,2.15
2022-08-25T14:15:02.215Z,2.15
2022-08-25T14:17:39.173Z,1.95
2022-08-25T14:20:18.057Z,2.20
2022-08-25T14:22:45.835Z,2.50
2022-08-25T14:25:13.716Z,2.33
2022-08-25T14:28:03.570Z,2.60
2022-08-25T14:30:34.557Z,2.10
2022-08-25T14:33:03.968Z,2.42
2022-08-25T14:35:33.945Z,2.67
2022-08-25T14:38:04.435Z,2.13
2022-08-25T14:40:34.453Z,1.98
2022-08-25T14:43:02.352Z,2.05
2022-08-25T14:45:31.566Z,2.40
2022-08-25T14:48:10.470Z,2.05
2022-08-25T14:50:41.221Z,2.92
2022-08-25T14:53:11.174Z,2.13
2022-08-25T14:55:39.808Z,2.67
2022-08-25T14:58:07.862Z,2.08
2022-08-25T15:00:38.201Z,2.25
2022-08-25T15:03:06.257Z,2.13
2022-08-25T15:05:34.145Z,2.55
2022-08-25T15:08:20.773Z,2.75
2022-08-25T15:10:48.590Z,2.42
2022-08-25T15:13:16.241Z,2.60
2022-08-25T15:15:52.336Z,2.15
2022-08-25T15:18:21.538Z,2.58
2022-08-25T15:20:49.843Z,2.22
2022-08-25T15:23:19.716Z,2.45
2022-08-25T15:25:52.799Z,2.28
2022-08-25T15:28:22.282Z,2.30
2022-08-25T15:30:50.294Z,2.17
2022-08-25T15:33:18.382Z,2.15
2022-08-25T15:35:46.557Z,2.53
2022-08-25T15:38:19.038Z,1.90
2022-08-25T15:40:46.745Z,2.53
2022-08-25T15:43:14.567Z,2.10
2022-08-25T15:45:46.289Z,2.10
2022-08-25T15:48:14.230Z,2.60
2022-08-25T15:50:42.546Z,2.53
2022-08-25T15:53:10.601Z,2.50
2022-08-25T15:55:41.289Z,2.25
2022-08-25T15:58:09.129Z,2.53
2022-08-25T16:00:37.931Z,2.20
2022-08-25T16:03:06.844Z,2.72
2022-08-25T16:05:36.787Z,2.45
2022-08-25T16:08:05.342Z,2.17
2022-08-25T16:10:38.428Z,2.05
2022-08-25T16:13:08.844Z,2.28
2022-08-25T16:15:36.853Z,2.40
2022-08-25T16:18:05.959Z,2.33
2022-08-25T16:20:37.182Z,2.20
2022-08-25T16:23:05.577Z,2.33
2022-08-25T16:25:33.610Z,2.10
2022-08-25T16:28:04.507Z,2.25
2022-08-25T16:30:33.551Z,2.10
2022-08-25T16:33:02.825Z,2.20
2022-08-25T16:35:30.642Z,2.28
2022-08-25T16:37:58.401Z,2.20
2022-08-25T16:40:27.410Z,2.10
2022-08-25T16:42:55.306Z,2.47
2022-08-25T16:45:23.146Z,2.10
2022-08-25T16:47:52.258Z,1.95
2022-08-25T16:50:20.226Z,2.15
2022-08-25T16:53:08.068Z,2.50
2022-08-25T16:55:39.399Z,2.17
2022-08-25T16:58:07.947Z,2.28
2022-08-25T17:00:38.781Z,2.40
2022-08-25T17:03:08.827Z,2.20
2022-08-25T17:05:43.007Z,2.30
2022-08-25T17:08:29.458Z,2.58
2022-08-25T17:11:06.831Z,2.25
2022-08-25T17:13:35.429Z,2.40
2022-08-25T17:16:03.419Z,2.65
2022-08-25T17:18:32.841Z,2.60
2022-08-25T17:21:03.922Z,2.30
2022-08-25T17:23:32.449Z,2.00
2022-08-25T17:26:02.811Z,2.10
2022-08-25T17:28:32.851Z,2.83
2022-08-25T17:31:01.264Z,2.30
2022-08-25T17:33:29.247Z,2.25
2022-08-25T17:35:58.767Z,2.58
2022-08-25T17:38:28.444Z,2.33
2022-08-25T17:40:58.975Z,2.28
2022-08-25T17:43:28.564Z,2.40
2022-08-25T17:45:57.801Z,2.28
2022-08-25T17:48:26.435Z,2.00
2022-08-25T17:50:54.799Z,2.25
2022-08-25T17:53:23.841Z,2.30
2022-08-25T17:56:00.274Z,2.38
2022-08-25T17:58:29.562Z,2.35
2022-08-25T18:00:57.304Z,2.38
2022-08-25T18:03:26.463Z,2.20
2022-08-25T18:05:55.315Z,2.50
2022-08-25T18:08:26.076Z,2.70
2022-08-25T18:11:00.062Z,2.50
2022-08-25T18:13:28.122Z,2.60
2022-08-25T18:15:56.142Z,2.60
2022-08-25T18:18:24.124Z,2.70
2022-08-25T18:20:52.295Z,2.55
2022-08-25T18:23:20.943Z,2.10
2022-08-25T18:25:50.729Z,2.67
2022-08-25T18:28:18.617Z,2.60
2022-08-25T18:30:47.177Z,2.65
2022-08-25T18:33:15.471Z,3.00
2022-08-25T18:35:43.575Z,2.55
2022-08-25T18:38:28.927Z,2.67
2022-08-25T18:40:59.496Z,2.80
2022-08-25T18:43:28.904Z,3.28
2022-08-25T18:46:00.327Z,3.20
2022-08-25T18:48:28.498Z,3.20
2022-08-25T18:50:56.691Z,3.58
2022-08-25T18:53:30.464Z,3.53
2022-08-25T18:56:07.475Z,3.30
2022-08-25T18:58:35.993Z,3.30
2022-08-25T19:01:04.279Z,3.35
2022-08-25T19:03:32.571Z,4.25
2022-08-25T19:06:00.678Z,3.45
2022-08-25T19:08:28.527Z,3.45
2022-08-25T19:10:56.329Z,4.22
2022-08-25T19:13:25.690Z,3.92
2022-08-25T19:15:53.457Z,4.68
2022-08-25T19:18:26.156Z,3.75
2022-08-25T19:20:58.434Z,3.50
2022-08-25T19:23:26.859Z,3.85
2022-08-25T19:25:54.588Z,3.70
2022-08-25T19:28:26.046Z,3.50
2022-08-25T19:30:54.133Z,4.20
2022-08-25T19:33:42.835Z,4.43
2022-08-25T19:36:09.924Z,3.78
2022-08-25T19:38:39.351Z,3.72
2022-08-25T19:41:10.645Z,3.85
2022-08-25T19:43:50.626Z,4.18
2022-08-25T19:46:25.971Z,5.55
2022-08-25T19:49:07.225Z,5.30
2022-08-25T19:51:36.806Z,4.50
2022-08-25T19:54:05.097Z,5.78
2022-08-25T19:56:35.102Z,6.85
2022-08-25T19:59:05.623Z,6.63
2022-08-25T20:01:33.350Z,6.10
2022-08-25T20:04:03.526Z,7.18
2022-08-25T20:06:32.123Z,9.25
2022-08-25T20:09:00.702Z,8.77
2022-08-25T20:11:30.000Z,8.13
2022-08-25T20:14:03.024Z,10.20
2022-08-25T20:16:32.868Z,10.18
2022-08-25T20:19:01.121Z,10.52
2022-08-25T20:21:33.590Z,11.02
2022-08-25T20:24:37.641Z,12.23
2022-08-25T20:27:05.630Z,13.77
2022-08-25T20:29:33.313Z,12.70
2022-08-25T20:32:02.379Z,11.88
2022-08-25T20:34:31.728Z,12.10
2022-08-25T20:37:00.350Z,14.45
2022-08-25T20:39:28.070Z,13.63
2022-08-25T20:41:56.594Z,15.85
2022-08-25T20:44:24.559Z,13.77
2022-08-25T20:46:52.297Z,9.93
2022-08-25T20:49:26.716Z,8.88
2022-08-25T20:51:54.403Z,7.82
2022-08-25T20:54:24.966Z,8.98
2022-08-25T20:56:54.214Z,11.02
2022-08-25T20:59:22.302Z,9.88
2022-08-25T21:01:50.762Z,11.23
2022-08-25T21:04:21.864Z,11.27
2022-08-25T21:06:51.917Z,10.70
2022-08-25T21:09:22.829Z,8.38
2022-08-25T21:11:54.267Z,8.63
2022-08-25T21:14:22.770Z,9.93
2022-08-25T21:16:52.478Z,9.50
2022-08-25T21:19:26.723Z,8.93
2022-08-25T21:22:00.278Z,6.88
2022-08-25T21:24:29.356Z,6.68
2022-08-25T21:26:59.649Z,7.07
2022-08-25T21:29:29.957Z,6.97
2022-08-25T21:31:59.307Z,6.93
2022-08-25T21:34:28.755Z,6.70
2022-08-25T21:36:57.994Z,7.38
2022-08-25T21:39:29.657Z,7.32
2022-08-25T21:42:00.491Z,7.13
2022-08-25T21:44:29.389Z,5.10
2022-08-25T21:46:57.263Z,6.85
2022-08-25T21:49:25.562Z,6.82
2022-08-25T21:52:01.054Z,7.00
2022-08-25T21:54:32.001Z,5.43
2022-08-25T21:57:02.116Z,5.45
2022-08-25T21:59:32.047Z,5.75
2022-08-25T22:02:02.671Z,5.13
2022-08-25T22:04:31.183Z,5.15
2022-08-25T22:06:59.311Z,6.15
2022-08-25T22:09:28.214Z,6.20
2022-08-25T22:11:58.578Z,5.72
2022-08-25T22:14:28.215Z,6.55
2022-08-25T22:16:56.448Z,5.25
2022-08-25T22:19:24.869Z,5.10
2022-08-25T22:21:53.800Z,5.20
2022-08-25T22:24:21.637Z,5.55
2022-08-25T22:26:49.432Z,6.47
2022-08-25T22:29:25.769Z,6.13
2022-08-25T22:32:00.145Z,5.85
2022-08-25T22:34:32.311Z,4.88
2022-08-25T22:37:00.778Z,5.55
2022-08-25T22:39:28.813Z,5.40
2022-08-25T22:41:56.786Z,5.60
2022-08-25T22:44:26.167Z,6.20
2022-08-25T22:46:54.392Z,6.07
2022-08-25T22:49:22.202Z,5.97
2022-08-25T22:51:49.958Z,5.63
2022-08-25T22:54:19.050Z,6.30
2022-08-25T22:56:46.710Z,5.15
2022-08-25T22:59:15.489Z,5.57
2022-08-25T23:01:45.985Z,4.90
2022-08-25T23:04:14.700Z,4.97
2022-08-25T23:06:42.946Z,4.50
2022-08-25T23:09:11.218Z,5.05
2022-08-25T23:11:39.391Z,4.68
2022-08-25T23:14:10.853Z,4.80
2022-08-25T23:16:38.970Z,3.83
2022-08-25T23:19:08.533Z,3.92
2022-08-25T23:21:53.601Z,4.10
2022-08-25T23:24:29.565Z,3.65
2022-08-25T23:26:58.805Z,3.28
2022-08-25T23:29:27.675Z,3.70
2022-08-25T23:31:56.038Z,2.67
2022-08-25T23:34:26.370Z,3.63
2022-08-25T23:36:55.786Z,2.88
2022-08-25T23:39:23.640Z,2.35
2022-08-25T23:41:52.665Z,2.83
2022-08-25T23:44:21.989Z,3.20
2022-08-25T23:46:49.832Z,2.83
2022-08-25T23:49:19.856Z,2.15
2022-08-25T23:51:52.660Z,3.08
2022-08-25T23:54:21.970Z,2.78
2022-08-25T23:56:58.931Z,2.63
2022-08-25T23:59:26.803Z,2.88
